createdAt,value
2019-03-28T00:02:25.648Z,70.53
2019-03-28T00:04:53.153Z,69.47
2019-03-28T00:07:23.886Z,68.95
2019-03-28T00:09:48.182Z,69.11
2019-03-28T00:12:15.711Z,68.55
2019-03-28T00:14:43.389Z,68.18
2019-03-28T00:17:10.858Z,68.16
2019-03-28T00:19:38.989Z,67.65
2019-03-28T00:22:06.520Z,67.98
2019-03-28T00:24:34.034Z,68.37
2019-03-28T00:27:01.606Z,68.63
2019-03-28T00:29:29.075Z,67.96
2019-03-28T00:31:56.636Z,67.28
2019-03-28T00:34:24.119Z,69.57
2019-03-28T00:36:51.754Z,69.58
2019-03-28T00:39:19.243Z,68.58
2019-03-28T00:41:46.721Z,67.90
2019-03-28T00:44:16.871Z,68.28
2019-03-28T00:46:44.434Z,68.12
2019-03-28T00:49:11.943Z,68.46
2019-03-28T00:51:39.609Z,69.71
2019-03-28T00:54:07.142Z,70.06
2019-03-28T00:56:46.596Z,69.41
2019-03-28T00:59:02.172Z,71.81
2019-03-28T01:01:29.663Z,70.77
2019-03-28T01:03:57.134Z,70.37
2019-03-28T01:06:24.661Z,71.50
2019-03-28T01:08:52.155Z,70.27
2019-03-28T01:11:19.683Z,71.88
2019-03-28T01:13:47.150Z,70.35
2019-03-28T01:16:14.608Z,69.74
2019-03-28T01:18:44.003Z,69.35
2019-03-28T01:21:11.468Z,69.66
2019-03-28T01:23:38.955Z,68.90
2019-03-28T01:26:06.445Z,68.41
2019-03-28T01:28:33.955Z,68.60
2019-03-28T01:31:01.491Z,68.69
2019-03-28T01:33:28.965Z,69.53
2019-03-28T01:35:56.456Z,70.33
2019-03-28T01:38:23.950Z,70.02
2019-03-28T01:40:51.452Z,69.70
2019-03-28T01:43:19.022Z,69.28
2019-03-28T01:45:46.650Z,70.41
2019-03-28T01:48:14.170Z,71.19
2019-03-28T01:50:41.668Z,70.33
2019-03-28T01:53:09.160Z,70.13
2019-03-28T01:55:36.628Z,71.98
2019-03-28T01:58:05.220Z,71.91
2019-03-28T02:00:32.109Z,71.59
2019-03-28T02:02:59.642Z,71.64
2019-03-28T02:05:27.203Z,70.96
2019-03-28T02:07:54.708Z,70.98
2019-03-28T02:10:22.188Z,70.44
2019-03-28T02:12:49.706Z,70.67
2019-03-28T02:15:17.192Z,70.80
2019-03-28T02:17:44.683Z,71.04
2019-03-28T02:20:12.173Z,70.47
2019-03-28T02:22:39.674Z,70.74
2019-03-28T02:25:07.135Z,70.13
2019-03-28T02:27:34.628Z,69.44
2019-03-28T02:30:02.619Z,69.56
2019-03-28T02:32:30.128Z,69.65
2019-03-28T02:34:57.607Z,69.84
2019-03-28T02:37:25.070Z,70.56
2019-03-28T02:39:52.552Z,71.89
2019-03-28T02:42:20.040Z,71.62
2019-03-28T02:44:47.553Z,71.79
2019-03-28T02:47:15.038Z,72.20
2019-03-28T02:49:42.528Z,71.89
2019-03-28T02:52:10.001Z,72.87
2019-03-28T02:54:37.518Z,72.02
2019-03-28T02:57:04.998Z,72.16
2019-03-28T02:59:32.509Z,72.18
2019-03-28T03:02:00.001Z,72.62
2019-03-28T03:04:27.510Z,72.50
2019-03-28T03:06:54.986Z,72.30
2019-03-28T03:09:22.471Z,72.03
2019-03-28T03:11:49.970Z,72.59
2019-03-28T03:14:17.443Z,73.38
2019-03-28T03:16:44.927Z,73.03
2019-03-28T03:19:13.061Z,72.12
2019-03-28T03:21:40.601Z,72.81
2019-03-28T03:24:08.069Z,73.03
2019-03-28T03:26:35.567Z,71.97
2019-03-28T03:29:03.543Z,71.38
2019-03-28T03:31:30.967Z,71.93
2019-03-28T03:33:58.467Z,72.39
2019-03-28T03:36:25.995Z,72.75
2019-03-28T03:38:53.481Z,72.70
2019-03-28T03:41:20.948Z,73.13
2019-03-28T03:43:49.667Z,73.78
2019-03-28T03:46:16.680Z,74.71
2019-03-28T03:48:44.185Z,75.05
2019-03-28T03:51:12.220Z,75.20
2019-03-28T03:53:39.722Z,74.99
2019-03-28T03:56:07.190Z,75.03
2019-03-28T03:58:34.672Z,75.11
2019-03-28T04:01:02.166Z,75.46
2019-03-28T04:03:29.800Z,75.78
2019-03-28T04:05:57.171Z,75.47
2019-03-28T04:08:24.668Z,75.22
2019-03-28T04:10:52.125Z,76.45
2019-03-28T04:13:19.624Z,76.52
2019-03-28T04:15:47.138Z,76.42
2019-03-28T04:18:14.618Z,76.16
2019-03-28T04:20:42.124Z,75.50
2019-03-28T04:23:09.650Z,74.37
2019-03-28T04:25:39.766Z,74.14
2019-03-28T04:28:06.258Z,74.97
2019-03-28T04:30:33.753Z,74.64
2019-03-28T04:33:01.225Z,74.36
2019-03-28T04:35:28.732Z,73.51
2019-03-28T04:37:56.196Z,75.30
2019-03-28T04:40:23.704Z,76.03
2019-03-28T04:42:51.175Z,76.07
2019-03-28T04:45:18.707Z,76.41
2019-03-28T04:47:46.193Z,77.65
2019-03-28T04:50:15.536Z,77.61
2019-03-28T04:52:43.030Z,77.39
2019-03-28T04:55:10.497Z,77.58
2019-03-28T04:57:40.898Z,77.62
2019-03-28T05:00:05.532Z,78.21
2019-03-28T05:02:33.015Z,77.68
2019-03-28T05:05:00.472Z,77.05
2019-03-28T05:07:27.977Z,76.52
2019-03-28T05:09:55.472Z,77.17
2019-03-28T05:12:23.838Z,77.07
2019-03-28T05:14:51.406Z,77.23
2019-03-28T05:17:18.893Z,76.58
2019-03-28T05:19:46.350Z,76.78
2019-03-28T05:22:13.891Z,77.56
2019-03-28T05:24:41.481Z,77.28
2019-03-28T05:27:08.963Z,77.73
2019-03-28T05:29:36.461Z,78.25
2019-03-28T05:32:04.139Z,78.92
2019-03-28T05:34:31.619Z,79.06
2019-03-28T05:36:59.100Z,79.39
2019-03-28T05:39:26.586Z,78.85
2019-03-28T05:41:54.078Z,78.61
2019-03-28T05:44:21.586Z,78.63
2019-03-28T05:46:49.079Z,78.88
2019-03-28T05:49:16.568Z,79.12
2019-03-28T05:51:44.054Z,79.12
2019-03-28T05:54:11.591Z,78.84
2019-03-28T05:56:39.053Z,78.79
2019-03-28T05:59:11.003Z,78.41
2019-03-28T06:01:35.195Z,77.97
2019-03-28T06:04:02.689Z,77.46
2019-03-28T06:06:30.143Z,76.61
2019-03-28T06:08:57.627Z,76.34
2019-03-28T06:11:25.095Z,77.01
2019-03-28T06:13:52.614Z,77.09
2019-03-28T06:16:20.091Z,77.37
2019-03-28T06:18:47.609Z,76.91
2019-03-28T06:21:15.087Z,77.10
2019-03-28T06:23:42.564Z,77.29
2019-03-28T06:26:10.043Z,76.95
2019-03-28T06:28:37.530Z,76.06
2019-03-28T06:31:04.992Z,75.42
2019-03-28T06:33:32.462Z,74.93
2019-03-28T06:36:02.227Z,74.82
2019-03-28T06:38:27.486Z,75.57
2019-03-28T06:40:54.961Z,75.57
2019-03-28T06:43:22.474Z,75.59
2019-03-28T06:45:49.987Z,75.58
2019-03-28T06:48:17.456Z,75.17
2019-03-28T06:50:44.970Z,75.12
2019-03-28T06:53:12.634Z,75.55
2019-03-28T06:55:39.996Z,74.96
2019-03-28T06:58:07.514Z,75.06
2019-03-28T07:00:35.004Z,75.33
2019-03-28T07:03:02.488Z,74.86
2019-03-28T07:05:29.979Z,74.50
2019-03-28T07:07:58.317Z,74.16
2019-03-28T07:10:25.022Z,74.61
2019-03-28T07:12:52.507Z,74.60
2019-03-28T07:15:20.592Z,74.47
2019-03-28T07:17:47.606Z,74.69
2019-03-28T07:20:15.083Z,76.01
2019-03-28T07:22:45.831Z,77.04
2019-03-28T07:25:11.038Z,76.50
2019-03-28T07:27:38.555Z,77.18
2019-03-28T07:30:06.052Z,77.16
2019-03-28T07:32:33.512Z,76.39
2019-03-28T07:35:01.871Z,77.08
2019-03-28T07:37:29.449Z,77.11
2019-03-28T07:39:56.965Z,77.12
2019-03-28T07:42:24.479Z,77.34
2019-03-28T07:44:51.977Z,76.60
2019-03-28T07:47:19.461Z,76.14
2019-03-28T07:49:47.947Z,75.47
2019-03-28T07:52:15.412Z,74.88
2019-03-28T07:54:42.888Z,74.24
2019-03-28T07:57:10.388Z,73.75
2019-03-28T07:59:37.903Z,73.14
2019-03-28T08:02:05.386Z,73.83
2019-03-28T08:04:32.914Z,73.47
2019-03-28T08:07:00.397Z,75.71
2019-03-28T08:09:36.414Z,76.38
2019-03-28T08:11:56.525Z,75.20
2019-03-28T08:14:24.012Z,75.27
2019-03-28T08:16:51.515Z,75.15
2019-03-28T08:19:19.030Z,74.33
2019-03-28T08:21:46.520Z,74.06
2019-03-28T08:24:14.018Z,73.35
2019-03-28T08:26:41.500Z,73.60
2019-03-28T08:29:08.970Z,74.28
2019-03-28T08:31:36.463Z,73.77
2019-03-28T08:34:03.948Z,72.95
2019-03-28T08:36:31.422Z,72.03
2019-03-28T08:38:58.951Z,72.01
2019-03-28T08:41:26.446Z,72.51
2019-03-28T08:43:54.985Z,73.17
2019-03-28T08:46:22.472Z,73.53
2019-03-28T08:48:49.986Z,72.67
2019-03-28T08:51:17.469Z,72.31
2019-03-28T08:53:44.944Z,72.33
2019-03-28T08:56:12.441Z,73.23
2019-03-28T08:58:39.938Z,72.67
2019-03-28T09:01:07.433Z,72.27
2019-03-28T09:03:34.931Z,71.89
2019-03-28T09:06:02.407Z,71.15
2019-03-28T09:08:29.916Z,70.67
2019-03-28T09:10:57.438Z,70.71
2019-03-28T09:13:24.924Z,70.60
2019-03-28T09:15:52.399Z,70.50
2019-03-28T09:18:19.918Z,70.34
2019-03-28T09:20:48.346Z,70.03
2019-03-28T09:23:15.892Z,69.48
2019-03-28T09:25:43.448Z,70.06
2019-03-28T09:28:11.017Z,72.22
2019-03-28T09:30:47.897Z,71.30
2019-03-28T09:33:07.038Z,71.45
2019-03-28T09:35:34.549Z,72.67
2019-03-28T09:38:02.076Z,71.96
2019-03-28T09:40:29.553Z,72.78
2019-03-28T09:42:57.053Z,71.83
2019-03-28T09:45:24.578Z,71.16
2019-03-28T09:47:52.086Z,71.07
2019-03-28T09:50:20.539Z,70.93
2019-03-28T09:52:48.024Z,69.77
2019-03-28T09:55:18.665Z,69.98
2019-03-28T09:57:43.055Z,70.09
2019-03-28T10:00:10.562Z,69.09
2019-03-28T10:02:38.092Z,68.48
2019-03-28T10:05:06.535Z,68.70
2019-03-28T10:07:34.007Z,68.61
2019-03-28T10:10:01.937Z,68.71
2019-03-28T10:12:29.067Z,67.73
2019-03-28T10:14:56.578Z,66.66
2019-03-28T10:17:24.075Z,68.07
2019-03-28T10:19:51.581Z,66.96
2019-03-28T10:22:22.154Z,67.05
2019-03-28T10:24:46.597Z,66.49
2019-03-28T10:27:14.103Z,66.92
2019-03-28T10:29:41.594Z,66.62
2019-03-28T10:32:09.117Z,66.28
2019-03-28T10:34:36.598Z,65.63
2019-03-28T10:37:04.118Z,65.89
2019-03-28T10:39:31.611Z,66.74
2019-03-28T10:41:59.461Z,66.72
2019-03-28T10:44:27.000Z,67.03
2019-03-28T10:46:54.483Z,65.01
2019-03-28T10:49:22.002Z,65.20
2019-03-28T10:51:49.479Z,62.93
2019-03-28T10:54:20.508Z,64.46
2019-03-28T10:56:51.670Z,64.23
2019-03-28T10:59:22.759Z,62.48
2019-03-28T11:01:49.174Z,62.79
2019-03-28T11:04:07.167Z,63.60
2019-03-28T11:06:34.678Z,63.46
2019-03-28T11:09:02.245Z,63.08
2019-03-28T11:11:29.727Z,63.32
2019-03-28T11:13:57.224Z,63.54
2019-03-28T11:16:24.728Z,62.07
2019-03-28T11:18:53.353Z,62.24
2019-03-28T11:21:21.323Z,62.00
2019-03-28T11:23:48.815Z,61.20
2019-03-28T11:26:16.338Z,63.00
2019-03-28T11:28:43.799Z,62.47
2019-03-28T11:31:11.371Z,61.82
2019-03-28T11:33:38.869Z,61.36
2019-03-28T11:36:06.383Z,61.73
2019-03-28T11:38:33.858Z,60.66
2019-03-28T11:41:01.342Z,62.10
2019-03-28T11:43:28.863Z,62.38
2019-03-28T11:45:56.436Z,60.43
2019-03-28T11:48:23.925Z,61.08
2019-03-28T11:50:51.402Z,61.58
2019-03-28T11:53:18.875Z,61.07
2019-03-28T11:55:48.839Z,61.30
2019-03-28T11:58:15.851Z,60.25
2019-03-28T12:00:43.376Z,61.46
2019-03-28T12:03:10.871Z,61.36
2019-03-28T12:05:38.332Z,60.08
2019-03-28T12:08:05.799Z,59.55
2019-03-28T12:10:33.584Z,60.97
2019-03-28T12:13:01.098Z,61.08
2019-03-28T12:15:28.763Z,60.47
2019-03-28T12:20:32.369Z,61.48
2019-03-28T12:22:59.893Z,61.43
2019-03-28T12:25:27.375Z,61.80
2019-03-28T12:27:54.850Z,61.45
2019-03-28T12:30:23.338Z,59.83
2019-03-28T12:32:50.828Z,59.98
2019-03-28T12:35:18.302Z,60.18
2019-03-28T12:37:45.810Z,59.97
2019-03-28T12:40:13.339Z,59.95
2019-03-28T12:42:40.830Z,59.50
2019-03-28T12:45:08.323Z,60.49
2019-03-28T12:47:42.420Z,61.23
2019-03-28T12:50:03.447Z,61.61
2019-03-28T12:52:30.967Z,60.04
2019-03-28T12:54:58.447Z,59.21
2019-03-28T12:57:25.960Z,59.20
2019-03-28T12:59:54.263Z,58.64
2019-03-28T13:02:28.605Z,60.29
2019-03-28T13:04:50.583Z,59.69
2019-03-28T13:07:18.162Z,59.87
2019-03-28T13:09:45.708Z,60.31
2019-03-28T13:12:13.211Z,60.79
2019-03-28T13:14:40.703Z,61.10
2019-03-28T13:17:10.134Z,60.39
2019-03-28T13:19:37.641Z,60.48
2019-03-28T13:22:05.100Z,60.29
2019-03-28T13:24:32.604Z,59.33
2019-03-28T13:27:00.702Z,60.27
2019-03-28T13:29:28.272Z,60.30
2019-03-28T13:31:55.809Z,60.22
2019-03-28T13:34:23.250Z,59.98
2019-03-28T13:36:50.708Z,59.59
2019-03-28T13:39:18.154Z,59.68
2019-03-28T13:41:46.209Z,59.01
2019-03-28T13:44:13.093Z,59.02
2019-03-28T13:46:40.564Z,59.20
2019-03-28T13:49:08.037Z,59.63
2019-03-28T13:51:35.488Z,59.17
2019-03-28T13:54:02.961Z,59.04
2019-03-28T13:56:30.455Z,59.04
2019-03-28T13:58:57.901Z,59.33
2019-03-28T14:01:26.333Z,60.01
2019-03-28T14:03:54.989Z,59.17
2019-03-28T14:06:22.447Z,60.01
2019-03-28T14:08:49.901Z,59.23
2019-03-28T14:11:17.494Z,59.17
2019-03-28T14:13:44.960Z,58.48
2019-03-28T14:16:12.392Z,58.34
2019-03-28T14:18:39.864Z,59.30
2019-03-28T14:21:07.306Z,58.93
2019-03-28T14:23:34.794Z,59.77
2019-03-28T14:26:02.299Z,58.99
2019-03-28T14:28:29.774Z,58.85
2019-03-28T14:30:57.227Z,59.12
2019-03-28T14:33:27.223Z,58.95
2019-03-28T14:35:52.188Z,58.74
2019-03-28T14:38:20.208Z,59.51
2019-03-28T14:40:47.670Z,59.63
2019-03-28T14:43:15.183Z,58.94
2019-03-28T14:45:42.653Z,59.50
2019-03-28T14:48:10.111Z,59.47
2019-03-28T14:50:37.587Z,59.57
2019-03-28T14:53:05.016Z,59.56
2019-03-28T14:55:32.481Z,59.55
2019-03-28T14:57:59.942Z,58.63
2019-03-28T15:00:42.427Z,59.53
2019-03-28T15:03:09.915Z,59.13
2019-03-28T15:05:37.362Z,59.37
2019-03-28T15:08:04.828Z,59.25
2019-03-28T15:10:32.293Z,58.79
2019-03-28T15:12:59.798Z,58.92
2019-03-28T15:15:27.281Z,59.02
2019-03-28T15:17:54.705Z,57.88
2019-03-28T15:20:22.212Z,58.31
2019-03-28T15:22:49.644Z,58.54
2019-03-28T15:25:17.097Z,58.80
2019-03-28T15:27:44.599Z,58.99
2019-03-28T15:30:12.047Z,58.81
2019-03-28T15:32:39.535Z,57.42
2019-03-28T15:35:06.960Z,58.01
2019-03-28T15:37:34.472Z,58.27
2019-03-28T15:40:01.924Z,58.32
2019-03-28T15:42:29.404Z,59.02
2019-03-28T15:44:57.189Z,56.71
2019-03-28T15:47:24.650Z,56.49
2019-03-28T15:49:52.130Z,56.22
2019-03-28T15:52:19.608Z,57.14
2019-03-28T15:54:47.101Z,56.46
2019-03-28T15:57:14.563Z,56.79
2019-03-28T15:59:42.023Z,56.46
2019-03-28T16:02:09.567Z,57.42
2019-03-28T16:04:37.059Z,57.03
2019-03-28T16:07:04.534Z,57.02
2019-03-28T16:09:32.038Z,57.17
2019-03-28T16:12:02.842Z,57.38
2019-03-28T16:14:27.777Z,57.90
2019-03-28T16:16:55.413Z,58.70
2019-03-28T16:19:22.750Z,59.16
2019-03-28T16:21:50.206Z,58.54
2019-03-28T16:24:17.707Z,57.94
2019-03-28T16:26:45.154Z,58.12
2019-03-28T16:29:12.615Z,58.28
2019-03-28T16:31:40.051Z,58.44
2019-03-28T16:34:07.702Z,58.62
2019-03-28T16:36:35.019Z,58.03
2019-03-28T16:39:02.459Z,58.11
2019-03-28T16:41:29.936Z,58.42
2019-03-28T16:43:59.157Z,58.66
2019-03-28T16:46:25.928Z,58.82
2019-03-28T16:48:53.537Z,58.58
2019-03-28T16:51:20.977Z,58.37
2019-03-28T16:53:48.538Z,58.80
2019-03-28T16:56:15.993Z,58.64
2019-03-28T16:58:43.539Z,58.94
2019-03-28T17:01:10.954Z,59.25
2019-03-28T17:03:38.410Z,58.79
2019-03-28T17:06:05.897Z,58.77
2019-03-28T17:08:33.562Z,58.80
2019-03-28T17:11:01.111Z,58.73
2019-03-28T17:13:28.975Z,58.52
2019-03-28T17:15:56.453Z,58.27
2019-03-28T17:18:24.264Z,57.56
2019-03-28T17:20:51.755Z,57.58
2019-03-28T17:23:19.185Z,57.74
2019-03-28T17:25:46.648Z,58.28
2019-03-28T17:28:14.107Z,57.90
2019-03-28T17:30:41.553Z,57.67
2019-03-28T17:33:09.026Z,57.71
2019-03-28T17:35:36.501Z,57.83
2019-03-28T17:38:03.922Z,58.57
2019-03-28T17:40:31.395Z,58.78
2019-03-28T17:42:59.500Z,57.90
2019-03-28T17:45:27.605Z,57.60
2019-03-28T17:47:55.069Z,57.96
2019-03-28T17:50:22.513Z,58.21
2019-03-28T17:52:49.991Z,58.10
2019-03-28T17:55:19.730Z,57.68
2019-03-28T17:57:45.186Z,58.28
2019-03-28T18:00:12.674Z,58.41
2019-03-28T18:02:40.565Z,58.03
2019-03-28T18:05:09.666Z,57.95
2019-03-28T18:07:36.699Z,57.72
2019-03-28T18:10:04.996Z,58.02
2019-03-28T18:12:32.461Z,57.68
2019-03-28T18:15:00.293Z,57.50
2019-03-28T18:17:27.717Z,58.28
2019-03-28T18:19:55.209Z,58.42
2019-03-28T18:22:22.663Z,58.89
2019-03-28T18:24:50.266Z,58.70
2019-03-28T18:27:17.832Z,58.36
2019-03-28T18:29:45.338Z,58.65
2019-03-28T18:32:13.169Z,58.66
2019-03-28T18:34:40.657Z,58.56
2019-03-28T18:37:08.099Z,58.47
2019-03-28T18:39:35.585Z,58.31
2019-03-28T18:42:03.056Z,58.08
2019-03-28T18:44:30.833Z,57.99
2019-03-28T18:46:58.302Z,57.99
2019-03-28T18:49:25.884Z,58.50
2019-03-28T18:51:53.365Z,58.25
2019-03-28T18:54:20.942Z,58.25
2019-03-28T18:56:48.366Z,58.34
2019-03-28T18:59:15.793Z,58.14
2019-03-28T19:01:43.253Z,58.72
2019-03-28T19:04:10.691Z,58.82
2019-03-28T19:06:38.153Z,59.24
2019-03-28T19:09:05.750Z,59.26
2019-03-28T19:11:33.298Z,59.30
2019-03-28T19:14:01.298Z,59.08
2019-03-28T19:16:28.752Z,59.75
2019-03-28T19:18:56.351Z,59.51
2019-03-28T19:21:23.867Z,59.02
2019-03-28T19:23:51.337Z,58.62
2019-03-28T19:26:18.786Z,58.69
2019-03-28T19:28:46.259Z,58.39
2019-03-28T19:31:13.774Z,58.98
2019-03-28T19:33:41.317Z,58.75
2019-03-28T19:36:08.751Z,58.45
2019-03-28T19:38:36.311Z,58.56
2019-03-28T19:41:03.819Z,58.94
2019-03-28T19:43:31.776Z,58.53
2019-03-28T19:45:59.231Z,58.83
2019-03-28T19:48:26.653Z,59.10
2019-03-28T19:50:54.201Z,58.62
2019-03-28T19:53:21.643Z,58.72
2019-03-28T19:55:49.111Z,58.50
2019-03-28T19:58:16.606Z,58.92
2019-03-28T20:00:44.255Z,59.21
2019-03-28T20:03:11.615Z,59.47
2019-03-28T20:05:47.639Z,59.52
2019-03-28T20:08:15.637Z,59.96
2019-03-28T20:10:34.123Z,60.41
2019-03-28T20:13:05.272Z,60.32
2019-03-28T20:15:29.958Z,60.59
2019-03-28T20:17:57.488Z,61.10
2019-03-28T20:20:24.933Z,61.05
2019-03-28T20:22:52.436Z,61.05
2019-03-28T20:25:19.903Z,61.15
2019-03-28T20:27:47.339Z,60.62
2019-03-28T20:30:14.826Z,60.60
2019-03-28T20:32:42.291Z,61.13
2019-03-28T20:35:10.694Z,61.30
2019-03-28T20:37:37.922Z,61.32
2019-03-28T20:40:04.798Z,61.12
2019-03-28T20:42:32.883Z,61.34
2019-03-28T20:45:00.373Z,60.94
2019-03-28T20:47:27.895Z,60.98
2019-03-28T20:49:55.366Z,61.20
2019-03-28T20:52:22.875Z,61.24
2019-03-28T20:54:50.342Z,61.48
2019-03-28T20:57:18.532Z,61.91
2019-03-28T20:59:46.888Z,61.73
2019-03-28T21:02:13.565Z,61.67
2019-03-28T21:04:41.160Z,61.81
2019-03-28T21:07:08.677Z,61.81
2019-03-28T21:09:36.355Z,62.29
2019-03-28T21:12:03.977Z,62.34
2019-03-28T21:14:31.407Z,62.69
2019-03-28T21:16:58.906Z,63.39
2019-03-28T21:19:26.438Z,63.15
2019-03-28T21:21:55.273Z,62.91
2019-03-28T21:24:23.675Z,63.01
2019-03-28T21:26:51.616Z,62.88
2019-03-28T21:29:19.104Z,62.87
2019-03-28T21:31:50.195Z,62.63
2019-03-28T21:34:16.343Z,62.89
2019-03-28T21:36:44.107Z,63.10
2019-03-28T21:39:11.799Z,63.07
2019-03-28T21:41:39.334Z,63.58
2019-03-28T21:44:07.093Z,63.14
2019-03-28T21:46:34.733Z,63.09
2019-03-28T21:49:02.427Z,63.08
2019-03-28T21:51:30.213Z,63.59
2019-03-28T21:53:58.288Z,63.47
2019-03-28T21:56:25.322Z,63.24
2019-03-28T21:58:52.767Z,63.05
2019-03-28T22:01:20.201Z,63.26
2019-03-28T22:03:47.639Z,63.21
2019-03-28T22:06:15.343Z,63.10
2019-03-28T22:08:42.809Z,62.60
2019-03-28T22:11:10.322Z,62.04
2019-03-28T22:13:37.777Z,61.96
2019-03-28T22:16:07.637Z,61.96
2019-03-28T22:18:33.812Z,62.05
2019-03-28T22:21:00.282Z,62.02
2019-03-28T22:23:27.786Z,61.93
2019-03-28T22:25:55.259Z,61.97
2019-03-28T22:28:22.700Z,62.26
2019-03-28T22:30:50.202Z,62.96
2019-03-28T22:33:17.679Z,62.93
2019-03-28T22:35:45.153Z,63.07
2019-03-28T22:38:12.591Z,62.90
2019-03-28T22:40:40.058Z,62.95
2019-03-28T22:43:07.517Z,62.94
2019-03-28T22:45:35.541Z,62.90
2019-03-28T22:48:10.779Z,62.75
2019-03-28T22:50:30.434Z,62.63
2019-03-28T22:52:57.921Z,62.78
2019-03-28T22:55:25.793Z,62.89
2019-03-28T22:57:54.156Z,63.47
2019-03-28T23:00:20.738Z,63.44
2019-03-28T23:02:49.022Z,63.26
2019-03-28T23:05:16.580Z,63.07
2019-03-28T23:07:44.060Z,63.42
2019-03-28T23:10:11.565Z,63.50
2019-03-28T23:12:39.010Z,63.37
2019-03-28T23:15:06.875Z,63.11
2019-03-28T23:17:34.414Z,62.69
2019-03-28T23:20:01.850Z,62.98
2019-03-28T23:22:29.311Z,63.23
2019-03-28T23:24:56.794Z,63.45
2019-03-28T23:27:24.292Z,63.45
2019-03-28T23:29:51.715Z,63.21
2019-03-28T23:32:19.151Z,63.10
2019-03-28T23:34:46.622Z,63.08
2019-03-28T23:37:24.222Z,63.30
2019-03-28T23:39:41.633Z,63.16
2019-03-28T23:42:09.078Z,62.95
2019-03-28T23:44:36.697Z,62.91
2019-03-28T23:47:04.153Z,63.00
2019-03-28T23:49:32.551Z,63.02
2019-03-28T23:52:00.066Z,63.06
2019-03-28T23:54:27.534Z,62.97
2019-03-28T23:56:54.962Z,63.01
2019-03-28T23:59:22.392Z,63.12
